createdAt,value
2018-02-15T00:01:07.646Z,-2.18
2018-02-15T00:02:17.593Z,-2.15
2018-02-15T00:03:27.557Z,-2.15
2018-02-15T00:04:37.255Z,-2.11
2018-02-15T00:05:46.943Z,-2.13
2018-02-15T00:06:56.887Z,-2.15
2018-02-15T00:08:06.852Z,-2.18
2018-02-15T00:09:16.544Z,-2.15
2018-02-15T00:10:26.484Z,-2.17
2018-02-15T00:11:36.178Z,-2.17
2018-02-15T00:12:46.126Z,-2.13
2018-02-15T00:13:56.119Z,-2.15
2018-02-15T00:15:05.808Z,-2.13
2018-02-15T00:16:15.752Z,-2.15
2018-02-15T00:17:25.698Z,-2.11
2018-02-15T00:18:35.645Z,-2.2
2018-02-15T00:19:45.594Z,-2.22
2018-02-15T00:20:55.541Z,-2.29
2018-02-15T00:22:05.486Z,-2.32
2018-02-15T00:23:15.430Z,-2.34
2018-02-15T00:24:25.402Z,-2.45
2018-02-15T00:25:35.360Z,-2.48
2018-02-15T00:26:45.306Z,-2.45
2018-02-15T00:27:55.268Z,-2.44
2018-02-15T00:29:04.762Z,-2.5
2018-02-15T00:30:14.198Z,-2.47
2018-02-15T00:31:24.153Z,-2.5
2018-02-15T00:32:33.335Z,-2.5
2018-02-15T00:33:43.071Z,-2.51
2018-02-15T00:34:53.026Z,-2.48
2018-02-15T00:36:02.987Z,-2.52
2018-02-15T00:37:12.939Z,-2.37
2018-02-15T00:38:22.644Z,-2.44
2018-02-15T00:39:32.072Z,-2.39
2018-02-15T00:40:41.759Z,-2.36
2018-02-15T00:41:51.467Z,-2.29
2018-02-15T00:43:01.156Z,-2.29
2018-02-15T00:44:10.842Z,-2.29
2018-02-15T00:45:20.781Z,-2.28
2018-02-15T00:46:30.725Z,-2.36
2018-02-15T00:47:40.671Z,-2.29
2018-02-15T00:48:50.632Z,-2.33
2018-02-15T00:50:00.319Z,-2.33
2018-02-15T00:51:10.281Z,-2.28
2018-02-15T00:52:19.964Z,-2.29
2018-02-15T00:53:29.912Z,-2.29
2018-02-15T00:54:39.350Z,-2.26
2018-02-15T00:55:48.820Z,-2.34
2018-02-15T00:56:58.768Z,-2.29
2018-02-15T00:58:08.457Z,-2.29
2018-02-15T00:59:18.404Z,-2.25
2018-02-15T01:00:28.144Z,-2.36
2018-02-15T01:01:38.094Z,-2.32
2018-02-15T01:02:47.802Z,-2.34
2018-02-15T01:03:57.758Z,-2.32
2018-02-15T01:05:07.703Z,-2.29
2018-02-15T01:06:17.388Z,-2.26
2018-02-15T01:07:27.082Z,-2.29
2018-02-15T01:08:36.815Z,-2.28
2018-02-15T01:09:46.776Z,-2.32
2018-02-15T01:10:56.722Z,-2.22
2018-02-15T01:12:06.405Z,-2.25
2018-02-15T01:13:16.341Z,-2.2
2018-02-15T01:14:26.027Z,-2.15
2018-02-15T01:15:35.970Z,-2.17
2018-02-15T01:16:45.930Z,-2.13
2018-02-15T01:17:55.628Z,-2.15
2018-02-15T01:19:05.577Z,-2.17
2018-02-15T01:20:15.532Z,-2.17
2018-02-15T01:21:25.489Z,-2.13
2018-02-15T01:22:35.434Z,-2.14
2018-02-15T01:23:45.132Z,-2.08
2018-02-15T01:24:55.084Z,-2.1
2018-02-15T01:26:05.040Z,-2.18
2018-02-15T01:27:14.740Z,-2.25
2018-02-15T01:28:24.705Z,-2.33
2018-02-15T01:29:34.676Z,-2.36
2018-02-15T01:30:44.375Z,-2.39
2018-02-15T01:31:54.077Z,-2.33
2018-02-15T01:33:04.031Z,-2.4
2018-02-15T01:34:13.975Z,-2.4
2018-02-15T01:35:23.923Z,-2.39
2018-02-15T01:36:33.620Z,-2.37
2018-02-15T01:37:43.568Z,-2.37
2018-02-15T01:38:53.526Z,-2.33
2018-02-15T01:40:03.212Z,-2.29
2018-02-15T01:41:12.910Z,-2.28
2018-02-15T01:42:22.861Z,-2.34
2018-02-15T01:43:32.819Z,-2.36
2018-02-15T01:44:42.512Z,-2.34
2018-02-15T01:45:52.451Z,-2.28
2018-02-15T01:47:02.406Z,-2.34
2018-02-15T01:48:12.103Z,-2.34
2018-02-15T01:49:21.801Z,-2.34
2018-02-15T01:50:31.790Z,-2.28
2018-02-15T01:51:41.749Z,-2.23
2018-02-15T01:52:51.436Z,-2.29
2018-02-15T01:54:01.394Z,-2.26
2018-02-15T01:55:11.342Z,-2.25
2018-02-15T01:56:21.300Z,-2.37
2018-02-15T01:57:30.728Z,-2.26
2018-02-15T01:58:40.164Z,-2.34
2018-02-15T01:59:49.686Z,-2.39
2018-02-15T02:00:59.372Z,-2.23
2018-02-15T02:02:09.315Z,-2.28
2018-02-15T02:03:19.258Z,-2.33
2018-02-15T02:04:28.958Z,-2.29
2018-02-15T02:05:38.932Z,-2.36
2018-02-15T02:06:48.883Z,-2.26
2018-02-15T02:07:58.569Z,-2.28
2018-02-15T02:09:08.269Z,-2.22
2018-02-15T02:10:18.223Z,-2.26
2018-02-15T02:11:28.189Z,-2.33
2018-02-15T02:12:37.377Z,-2.33
2018-02-15T02:13:47.344Z,-2.34
2018-02-15T02:14:57.038Z,-2.29
2018-02-15T02:16:06.988Z,-2.34
2018-02-15T02:17:16.934Z,-2.39
2018-02-15T02:18:26.631Z,-2.39
2018-02-15T02:19:36.325Z,-2.36
2018-02-15T02:20:46.284Z,-2.37
2018-02-15T02:21:56.236Z,-2.4
2018-02-15T02:23:06.185Z,-2.39
2018-02-15T02:24:16.143Z,-2.52
2018-02-15T02:25:26.095Z,-2.57
2018-02-15T02:26:35.780Z,-2.65
2018-02-15T02:27:45.731Z,-2.73
2018-02-15T02:28:55.173Z,-2.78
2018-02-15T02:30:04.873Z,-2.76
2018-02-15T02:31:14.572Z,-2.73
2018-02-15T02:32:24.011Z,-2.76
2018-02-15T02:33:33.959Z,-2.73
2018-02-15T02:34:43.909Z,-2.75
2018-02-15T02:35:53.852Z,-2.69
2018-02-15T02:37:03.545Z,-2.68
2018-02-15T02:38:13.515Z,-2.75
2018-02-15T02:39:22.956Z,-2.76
2018-02-15T02:40:32.646Z,-2.8
2018-02-15T02:41:42.598Z,-2.72
2018-02-15T02:42:52.565Z,-2.76
2018-02-15T02:44:02.520Z,-2.81
2018-02-15T02:45:12.472Z,-2.75
2018-02-15T02:46:22.455Z,-2.81
2018-02-15T02:47:32.408Z,-2.87
2018-02-15T02:48:42.107Z,-2.81
2018-02-15T02:49:52.058Z,-2.83
2018-02-15T02:51:01.758Z,-2.78
2018-02-15T02:52:11.733Z,-2.78
2018-02-15T02:53:21.429Z,-2.78
2018-02-15T02:54:31.386Z,-2.78
2018-02-15T02:55:41.335Z,-2.76
2018-02-15T02:56:50.774Z,-2.72
2018-02-15T02:58:00.471Z,-2.7
2018-02-15T02:59:10.414Z,-2.62
2018-02-15T03:00:20.388Z,-2.73
2018-02-15T03:01:30.334Z,-2.61
2018-02-15T03:02:40.033Z,-2.65
2018-02-15T03:03:49.986Z,-2.7
2018-02-15T03:04:59.931Z,-2.72
2018-02-15T03:06:09.895Z,-2.7
2018-02-15T03:07:19.849Z,-2.7
2018-02-15T03:08:29.795Z,-2.7
2018-02-15T03:09:39.735Z,-2.73
2018-02-15T03:10:49.420Z,-2.68
2018-02-15T03:11:59.354Z,-2.69
2018-02-15T03:13:09.307Z,-2.75
2018-02-15T03:14:19.257Z,-2.66
2018-02-15T03:15:28.941Z,-2.69
2018-02-15T03:16:38.898Z,-2.69
2018-02-15T03:17:48.850Z,-2.66
2018-02-15T03:18:58.532Z,-2.69
2018-02-15T03:20:08.480Z,-2.61
2018-02-15T03:21:18.164Z,-2.55
2018-02-15T03:22:28.141Z,-2.62
2018-02-15T03:23:37.829Z,-2.57
2018-02-15T03:24:47.772Z,-2.55
2018-02-15T03:25:57.471Z,-2.45
2018-02-15T03:27:07.432Z,-2.47
2018-02-15T03:28:17.130Z,-2.5
2018-02-15T03:29:26.826Z,-2.58
2018-02-15T03:30:36.771Z,-2.55
2018-02-15T03:31:46.468Z,-2.58
2018-02-15T03:32:56.417Z,-2.45
2018-02-15T03:34:06.386Z,-2.44
2018-02-15T03:35:16.068Z,-2.5
2018-02-15T03:36:25.753Z,-2.58
2018-02-15T03:37:35.444Z,-2.51
2018-02-15T03:38:45.432Z,-2.54
2018-02-15T03:39:54.866Z,-2.61
2018-02-15T03:41:04.824Z,-2.55
2018-02-15T03:42:14.258Z,-2.52
2018-02-15T03:43:23.950Z,-2.55
2018-02-15T03:44:33.898Z,-2.5
2018-02-15T03:45:43.596Z,-2.52
2018-02-15T03:46:53.553Z,-2.5
2018-02-15T03:48:03.498Z,-2.51
2018-02-15T03:49:13.457Z,-2.52
2018-02-15T03:50:23.418Z,-2.48
2018-02-15T03:51:33.363Z,-2.5
2018-02-15T03:52:43.316Z,-2.51
2018-02-15T03:53:53.020Z,-2.47
2018-02-15T03:55:02.463Z,-2.5
2018-02-15T03:56:12.427Z,-2.47
2018-02-15T03:57:22.362Z,-2.51
2018-02-15T03:58:32.307Z,-2.47
2018-02-15T03:59:42.286Z,-2.54
2018-02-15T04:00:52.236Z,-2.45
2018-02-15T04:02:01.665Z,-2.54
2018-02-15T04:03:11.102Z,-2.5
2018-02-15T04:04:21.048Z,-2.55
2018-02-15T04:05:31.001Z,-2.48
2018-02-15T04:06:40.437Z,-2.42
2018-02-15T04:07:49.870Z,-2.5
2018-02-15T04:08:59.810Z,-2.48
2018-02-15T04:10:09.499Z,-2.5
2018-02-15T04:11:19.447Z,-2.47
2018-02-15T04:12:29.440Z,-2.52
2018-02-15T04:13:39.390Z,-2.54
2018-02-15T04:14:49.332Z,-2.51
2018-02-15T04:15:59.293Z,-2.47
2018-02-15T04:17:09.234Z,-2.52
2018-02-15T04:18:18.666Z,-2.5
2018-02-15T04:19:28.340Z,-2.47
2018-02-15T04:20:38.292Z,-2.51
2018-02-15T04:21:48.234Z,-2.44
2018-02-15T04:22:57.927Z,-2.4
2018-02-15T04:24:07.918Z,-2.51
2018-02-15T04:25:17.616Z,-2.52
2018-02-15T04:26:27.316Z,-2.51
2018-02-15T04:27:37.004Z,-2.48
2018-02-15T04:28:46.947Z,-2.45
2018-02-15T04:29:56.632Z,-2.42
2018-02-15T04:31:06.343Z,-2.44
2018-02-15T04:32:16.027Z,-2.45
2018-02-15T04:33:25.720Z,-2.52
2018-02-15T04:34:35.412Z,-2.5
2018-02-15T04:35:45.360Z,-2.45
2018-02-15T04:36:54.787Z,-2.5
2018-02-15T04:38:04.735Z,-2.47
2018-02-15T04:39:14.439Z,-2.52
2018-02-15T04:40:24.387Z,-2.51
2018-02-15T04:41:34.339Z,-2.55
2018-02-15T04:42:44.032Z,-2.48
2018-02-15T04:43:53.462Z,-2.39
2018-02-15T04:45:03.402Z,-2.48
2018-02-15T04:46:13.364Z,-2.51
2018-02-15T04:47:23.057Z,-2.45
2018-02-15T04:48:33.014Z,-2.5
2018-02-15T04:49:42.717Z,-2.58
2018-02-15T04:50:52.398Z,-2.55
2018-02-15T04:52:02.351Z,-2.48
2018-02-15T04:53:12.303Z,-2.5
2018-02-15T04:54:22.256Z,-2.51
2018-02-15T04:55:32.211Z,-2.47
2018-02-15T04:56:42.161Z,-2.42
2018-02-15T04:57:52.106Z,-2.47
2018-02-15T04:59:01.790Z,-2.51
2018-02-15T05:00:11.483Z,-2.58
2018-02-15T05:01:21.434Z,-2.52
2018-02-15T05:02:31.381Z,-2.47
2018-02-15T05:03:41.358Z,-2.5
2018-02-15T05:04:51.316Z,-2.51
2018-02-15T05:06:01.277Z,-2.57
2018-02-15T05:07:11.242Z,-2.5
2018-02-15T05:08:21.188Z,-2.48
2018-02-15T05:09:30.630Z,-2.51
2018-02-15T05:10:40.592Z,-2.51
2018-02-15T05:11:50.565Z,-2.4
2018-02-15T05:13:00.532Z,-2.44
2018-02-15T05:14:10.484Z,-2.44
2018-02-15T05:15:20.447Z,-2.39
2018-02-15T05:16:30.404Z,-2.37
2018-02-15T05:17:40.342Z,-2.23
2018-02-15T05:18:50.297Z,-2.22
2018-02-15T05:20:00.242Z,-2.26
2018-02-15T05:21:10.182Z,-2.4
2018-02-15T05:22:20.157Z,-2.37
2018-02-15T05:23:30.113Z,-2.37
2018-02-15T05:24:40.053Z,-2.37
2018-02-15T05:25:49.989Z,-2.39
2018-02-15T05:26:59.704Z,-2.34
2018-02-15T05:28:09.644Z,-2.45
2018-02-15T05:29:19.603Z,-2.45
2018-02-15T05:30:29.296Z,-2.52
2018-02-15T05:31:39.243Z,-2.48
2018-02-15T05:32:48.937Z,-2.51
2018-02-15T05:33:58.878Z,-2.51
2018-02-15T05:35:08.825Z,-2.5
2018-02-15T05:36:18.514Z,-2.47
2018-02-15T05:37:28.469Z,-2.44
2018-02-15T05:38:38.425Z,-2.48
2018-02-15T05:39:48.369Z,-2.52
2018-02-15T05:40:58.424Z,-2.52
2018-02-15T05:42:08.367Z,-2.51
2018-02-15T05:43:18.306Z,-2.55
2018-02-15T05:44:27.990Z,-2.5
2018-02-15T05:45:37.946Z,-2.5
2018-02-15T05:46:47.894Z,-2.54
2018-02-15T05:47:57.852Z,-2.5
2018-02-15T05:49:07.551Z,-2.51
2018-02-15T05:50:17.261Z,-2.57
2018-02-15T05:51:26.704Z,-2.5
2018-02-15T05:52:36.656Z,-2.5
2018-02-15T05:53:46.112Z,-2.52
2018-02-15T05:54:55.797Z,-2.48
2018-02-15T05:56:05.758Z,-2.48
2018-02-15T05:57:15.705Z,-2.5
2018-02-15T05:58:25.391Z,-2.47
2018-02-15T05:59:35.074Z,-2.42
2018-02-15T06:00:45.029Z,-2.5
2018-02-15T06:01:54.990Z,-2.51
2018-02-15T06:03:04.956Z,-2.48
2018-02-15T06:04:14.650Z,-2.51
2018-02-15T06:05:24.331Z,-2.45
2018-02-15T06:06:34.028Z,-2.52
2018-02-15T06:07:44.003Z,-2.51
2018-02-15T06:08:53.941Z,-2.37
2018-02-15T06:10:03.886Z,-2.42
2018-02-15T06:11:13.820Z,-2.33
2018-02-15T06:12:23.257Z,-2.29
2018-02-15T06:13:33.204Z,-2.33
2018-02-15T06:14:43.143Z,-2.39
2018-02-15T06:15:52.829Z,-2.28
2018-02-15T06:17:02.773Z,-2.29
2018-02-15T06:18:12.720Z,-2.36
2018-02-15T06:19:22.408Z,-2.36
2018-02-15T06:20:32.097Z,-2.32
2018-02-15T06:21:42.037Z,-2.26
2018-02-15T06:22:52.000Z,-2.25
2018-02-15T06:24:01.684Z,-2.2
2018-02-15T06:25:11.377Z,-2.25
2018-02-15T06:26:21.340Z,-2.29
2018-02-15T06:27:31.028Z,-2.36
2018-02-15T06:28:40.978Z,-2.29
2018-02-15T06:29:50.976Z,-2.28
2018-02-15T06:31:00.667Z,-2.29
2018-02-15T06:32:10.370Z,-2.26
2018-02-15T06:33:20.053Z,-2.32
2018-02-15T06:34:30.106Z,-2.26
2018-02-15T06:35:40.056Z,-2.32
2018-02-15T06:36:50.010Z,-2.29
2018-02-15T06:37:59.997Z,-2.29
2018-02-15T06:39:09.432Z,-2.28
2018-02-15T06:40:19.380Z,-2.32
2018-02-15T06:41:29.074Z,-2.26
2018-02-15T06:42:39.063Z,-2.26
2018-02-15T06:43:49.033Z,-2.33
2018-02-15T06:44:58.767Z,-2.33
2018-02-15T06:46:08.463Z,-2.37
2018-02-15T06:47:18.415Z,-2.34
2018-02-15T06:48:28.375Z,-2.34
2018-02-15T06:49:38.333Z,-2.5
2018-02-15T06:50:48.294Z,-2.34
2018-02-15T06:51:58.246Z,-2.37
2018-02-15T06:53:08.234Z,-2.34
2018-02-15T06:54:18.187Z,-2.26
2018-02-15T06:55:27.890Z,-2.33
2018-02-15T06:56:37.835Z,-2.29
2018-02-15T06:57:47.572Z,-2.23
2018-02-15T06:58:57.515Z,-2.29
2018-02-15T07:00:07.235Z,-2.26
2018-02-15T07:01:17.184Z,-2.33
2018-02-15T07:02:27.154Z,-2.33
2018-02-15T07:03:37.108Z,-2.36
2018-02-15T07:04:47.063Z,-2.34
2018-02-15T07:05:57.022Z,-2.26
2018-02-15T07:07:06.983Z,-2.28
2018-02-15T07:08:16.152Z,-2.26
2018-02-15T07:09:26.115Z,-2.11
2018-02-15T07:10:35.829Z,-2.25
2018-02-15T07:11:45.534Z,-2.14
2018-02-15T07:12:55.249Z,-2.15
2018-02-15T07:14:05.230Z,-2.18
2018-02-15T07:15:15.302Z,-2.1
2018-02-15T07:16:25.248Z,-2.1
2018-02-15T07:17:35.195Z,-2.08
2018-02-15T07:18:45.151Z,-2.17
2018-02-15T07:19:54.600Z,-2.14
2018-02-15T07:21:04.305Z,-2.18
2018-02-15T07:22:13.988Z,-2.18
2018-02-15T07:23:23.720Z,-2.2
2018-02-15T07:24:33.411Z,-2.13
2018-02-15T07:25:43.362Z,-2.22
2018-02-15T07:26:53.063Z,-2.17
2018-02-15T07:28:02.760Z,-2.1
2018-02-15T07:29:12.712Z,-2.08
2018-02-15T07:30:22.430Z,-2.08
2018-02-15T07:31:32.424Z,-2.1
2018-02-15T07:32:42.126Z,-1.99
2018-02-15T07:33:51.569Z,-2.08
2018-02-15T07:35:01.526Z,-2.02
2018-02-15T07:36:11.486Z,-1.97
2018-02-15T07:37:21.188Z,-2
2018-02-15T07:38:31.163Z,-1.97
2018-02-15T07:39:41.124Z,-2.02
2018-02-15T07:40:50.812Z,-1.97
2018-02-15T07:42:00.505Z,-1.94
2018-02-15T07:43:10.457Z,-1.99
2018-02-15T07:44:20.399Z,-1.94
2018-02-15T07:45:30.095Z,-1.92
2018-02-15T07:46:40.045Z,-1.93
2018-02-15T07:47:50.017Z,-1.94
2018-02-15T07:48:59.985Z,-1.92
2018-02-15T07:50:09.947Z,-1.9
2018-02-15T07:51:19.898Z,-1.87
2018-02-15T07:52:29.608Z,-1.84
2018-02-15T07:53:39.565Z,-1.87
2018-02-15T07:54:49.268Z,-1.94
2018-02-15T07:55:59.231Z,-1.96
2018-02-15T07:57:09.204Z,-1.94
2018-02-15T07:58:19.163Z,-1.99
2018-02-15T07:59:29.126Z,-1.97
2018-02-15T08:00:39.081Z,-1.96
2018-02-15T08:01:49.061Z,-1.96
2018-02-15T08:02:59.028Z,-1.87
2018-02-15T08:04:09.011Z,-1.84
2018-02-15T08:05:18.959Z,-1.78
2018-02-15T08:06:28.921Z,-1.71
2018-02-15T08:07:38.870Z,-1.75
2018-02-15T08:08:48.854Z,-1.71
2018-02-15T08:09:58.845Z,-1.57
2018-02-15T08:11:08.809Z,-1.74
2018-02-15T08:12:18.763Z,-1.63
2018-02-15T08:13:28.469Z,-1.68
2018-02-15T08:14:37.644Z,-1.58
2018-02-15T08:15:47.360Z,-1.58
2018-02-15T08:16:57.048Z,-1.54
2018-02-15T08:18:07.006Z,-1.57
2018-02-15T08:19:16.988Z,-1.54
2018-02-15T08:20:26.950Z,-1.53
2018-02-15T08:21:36.914Z,-1.42
2018-02-15T08:22:46.880Z,-1.35
2018-02-15T08:23:56.910Z,-1.39
2018-02-15T08:25:06.878Z,-1.35
2018-02-15T08:26:16.343Z,-1.35
2018-02-15T08:27:26.301Z,-1.3
2018-02-15T08:28:36.267Z,-1.35
2018-02-15T08:29:46.227Z,-1.25
2018-02-15T08:30:56.177Z,-1.27
2018-02-15T08:32:06.164Z,-1.19
2018-02-15T08:33:16.109Z,-1.06
2018-02-15T08:34:26.070Z,-1.03
2018-02-15T08:35:36.045Z,-1.11
2018-02-15T08:36:45.773Z,-0.97
2018-02-15T08:37:55.623Z,-0.99
2018-02-15T08:39:05.597Z,-1.01
2018-02-15T08:40:15.578Z,-0.97
2018-02-15T08:41:25.552Z,-1
2018-02-15T08:42:35.517Z,-1
2018-02-15T08:43:45.484Z,-1.04
2018-02-15T08:44:55.470Z,-1.11
2018-02-15T08:46:05.462Z,-1.21
2018-02-15T08:47:15.175Z,-1.15
2018-02-15T08:48:24.871Z,-1.21
2018-02-15T08:49:34.852Z,-1.11
2018-02-15T08:50:44.822Z,-1.09
2018-02-15T08:51:54.521Z,-1.07
2018-02-15T08:53:04.478Z,-1.03
2018-02-15T08:54:14.446Z,-0.99
2018-02-15T08:55:24.430Z,-0.89
2018-02-15T08:56:34.390Z,-0.85
2018-02-15T08:57:44.102Z,-0.97
2018-02-15T08:58:53.803Z,-1
2018-02-15T09:00:03.881Z,-0.97
2018-02-15T09:01:13.837Z,-0.99
2018-02-15T09:02:23.556Z,-0.85
2018-02-15T09:03:33.271Z,-0.84
2018-02-15T09:04:42.963Z,-0.78
2018-02-15T09:05:52.669Z,-0.8
2018-02-15T09:07:02.650Z,-0.8
2018-02-15T09:08:12.347Z,-0.66
2018-02-15T09:09:22.304Z,-0.57
2018-02-15T09:10:32.319Z,-0.56
2018-02-15T09:11:42.320Z,-0.6
2018-02-15T09:12:52.284Z,-0.44
2018-02-15T09:14:02.253Z,-0.38
2018-02-15T09:15:12.235Z,-0.31
2018-02-15T09:16:22.205Z,-0.44
2018-02-15T09:17:31.918Z,-0.39
2018-02-15T09:18:41.873Z,-0.31
2018-02-15T09:19:51.840Z,-0.31
2018-02-15T09:21:01.822Z,-0.24
2018-02-15T09:22:11.789Z,-0.2
2018-02-15T09:23:21.825Z,-0.18
2018-02-15T09:24:31.535Z,-0.23
2018-02-15T09:25:41.544Z,-0.03
2018-02-15T09:26:51.263Z,-0.07
2018-02-15T09:28:01.276Z,-0.02
2018-02-15T09:29:11.571Z,-0.2
2018-02-15T09:30:21.535Z,-0.13
2018-02-15T09:31:31.529Z,0.01
2018-02-15T09:32:41.525Z,0
2018-02-15T09:33:51.479Z,0.15
2018-02-15T09:35:01.221Z,0.16
2018-02-15T09:36:11.198Z,0.31
2018-02-15T09:37:21.186Z,0.3
2018-02-15T09:38:31.177Z,0.39
2018-02-15T09:39:40.905Z,0.27
2018-02-15T09:40:50.909Z,0.24
2018-02-15T09:42:00.632Z,0.37
2018-02-15T09:43:10.603Z,0.56
2018-02-15T09:44:20.296Z,0.67
2018-02-15T09:45:30.264Z,0.59
2018-02-15T09:46:39.974Z,0.47
2018-02-15T09:47:49.677Z,0.52
2018-02-15T09:48:59.403Z,0.74
2018-02-15T09:50:09.419Z,0.71
2018-02-15T09:51:19.414Z,0.66
2018-02-15T09:52:29.188Z,0.85
2018-02-15T09:53:39.210Z,0.82
2018-02-15T09:54:48.929Z,0.92
2018-02-15T09:55:58.956Z,0.95
2018-02-15T09:57:08.678Z,1.14
2018-02-15T09:58:18.468Z,1.09
2018-02-15T09:59:27.928Z,1.07
2018-02-15T10:00:37.928Z,1.28
2018-02-15T10:01:47.633Z,1.28
2018-02-15T10:02:57.360Z,1.34
2018-02-15T10:04:07.077Z,1.32
2018-02-15T10:05:16.805Z,1.27
2018-02-15T10:06:26.502Z,1.39
2018-02-15T10:07:36.494Z,1.45
2018-02-15T10:08:46.456Z,1.48
2018-02-15T10:09:56.424Z,1.16
2018-02-15T10:11:06.463Z,0.96
2018-02-15T10:12:16.447Z,1.02
2018-02-15T10:13:26.165Z,1.21
2018-02-15T10:14:36.404Z,1.46
2018-02-15T10:15:46.385Z,1.52
2018-02-15T10:16:55.827Z,1.58
2018-02-15T10:18:05.799Z,1.61
2018-02-15T10:19:15.500Z,1.57
2018-02-15T10:20:25.482Z,1.75
2018-02-15T10:21:35.448Z,1.63
2018-02-15T10:22:45.172Z,1.58
2018-02-15T10:23:55.268Z,1.66
2018-02-15T10:25:04.990Z,1.67
2018-02-15T10:26:14.707Z,1.6
2018-02-15T10:27:24.696Z,1.81
2018-02-15T10:28:34.678Z,1.92
2018-02-15T10:29:44.400Z,1.82
2018-02-15T10:30:54.368Z,1.79
2018-02-15T10:32:04.609Z,1.57
2018-02-15T10:33:14.619Z,1.67
2018-02-15T10:34:24.608Z,1.78
2018-02-15T10:35:34.092Z,1.82
2018-02-15T10:36:44.090Z,1.92
2018-02-15T10:37:54.103Z,2.28
2018-02-15T10:39:03.812Z,2.26
2018-02-15T10:40:13.797Z,2.39
2018-02-15T10:41:23.509Z,2.55
2018-02-15T10:42:33.481Z,2.58
2018-02-15T10:43:43.181Z,2.59
2018-02-15T10:44:53.154Z,2.55
2018-02-15T10:46:03.200Z,2.39
2018-02-15T10:47:12.896Z,2.15
2018-02-15T10:48:22.859Z,2.03
2018-02-15T10:49:32.819Z,2.07
2018-02-15T10:50:42.772Z,2.36
2018-02-15T10:51:52.237Z,2.58
2018-02-15T10:53:02.236Z,2.62
2018-02-15T10:54:11.947Z,2.77
2018-02-15T10:55:21.671Z,2.9
2018-02-15T10:56:31.758Z,2.98
2018-02-15T10:57:41.507Z,3.13
2018-02-15T10:58:51.460Z,3.09
2018-02-15T11:00:01.442Z,2.93
2018-02-15T11:01:11.420Z,2.75
2018-02-15T11:02:21.532Z,2.58
2018-02-15T11:03:31.501Z,2.59
2018-02-15T11:04:41.541Z,2.62
2018-02-15T11:05:51.604Z,2.79
2018-02-15T11:07:01.623Z,2.79
2018-02-15T11:08:11.671Z,2.75
2018-02-15T11:09:21.655Z,2.87
2018-02-15T11:10:31.671Z,2.98
2018-02-15T11:11:41.639Z,3.03
2018-02-15T11:12:51.646Z,3.11
2018-02-15T11:14:01.625Z,3.24
2018-02-15T11:15:11.595Z,3.29
2018-02-15T11:16:21.296Z,3.66
2018-02-15T11:17:31.266Z,3.7
2018-02-15T11:18:41.536Z,3.59
2018-02-15T11:19:51.518Z,3.49
2018-02-15T11:21:01.580Z,3.48
2018-02-15T11:22:11.551Z,3.59
2018-02-15T11:23:21.498Z,3.7
2018-02-15T11:24:31.472Z,3.82
2018-02-15T11:25:41.529Z,3.7
2018-02-15T11:26:51.612Z,3.74
2018-02-15T11:28:01.590Z,3.7
2018-02-15T11:29:11.302Z,3.59
2018-02-15T11:30:21.001Z,3.66
2018-02-15T11:31:30.981Z,3.64
2018-02-15T11:32:40.968Z,3.67
2018-02-15T11:33:50.811Z,3.68
2018-02-15T11:35:00.788Z,3.63
2018-02-15T11:36:10.781Z,3.49
2018-02-15T11:37:20.745Z,3.56
2018-02-15T11:38:30.709Z,3.46
2018-02-15T11:39:40.680Z,3.4
2018-02-15T11:40:50.648Z,3.31
2018-02-15T11:42:00.360Z,3.29
2018-02-15T11:43:10.315Z,3.27
2018-02-15T11:44:20.027Z,3.08
2018-02-15T11:45:30.056Z,2.76
2018-02-15T11:46:40.032Z,2.54
2018-02-15T11:47:49.730Z,2.46
2018-02-15T11:48:59.694Z,2.5
2018-02-15T11:50:09.667Z,2.62
2018-02-15T11:51:19.363Z,2.51
2018-02-15T11:52:29.385Z,2.59
2018-02-15T11:53:39.347Z,2.7
2018-02-15T11:54:49.092Z,2.68
2018-02-15T11:55:59.097Z,2.61
2018-02-15T11:57:09.073Z,2.58
2018-02-15T11:58:18.782Z,2.68
2018-02-15T11:59:28.743Z,2.58
2018-02-15T12:00:38.737Z,2.62
2018-02-15T12:01:48.718Z,2.75
2018-02-15T12:02:58.691Z,2.8
2018-02-15T12:04:08.660Z,2.97
2018-02-15T12:05:18.687Z,2.88
2018-02-15T12:06:28.673Z,2.98
2018-02-15T12:07:38.381Z,2.97
2018-02-15T12:08:48.118Z,3.12
2018-02-15T12:09:58.123Z,3.18
2018-02-15T12:11:08.090Z,3.41
2018-02-15T12:12:17.524Z,3.61
2018-02-15T12:13:27.249Z,3.71
2018-02-15T12:14:36.731Z,3.85
2018-02-15T12:15:46.711Z,3.88
2018-02-15T12:16:56.413Z,3.94
2018-02-15T12:18:06.455Z,3.82
2018-02-15T12:19:16.423Z,3.85
2018-02-15T12:20:26.387Z,3.82
2018-02-15T12:21:36.150Z,3.82
2018-02-15T12:22:45.881Z,3.73
2018-02-15T12:23:55.839Z,3.53
2018-02-15T12:25:05.615Z,3.56
2018-02-15T12:26:15.774Z,3.49
2018-02-15T12:27:25.775Z,3.31
2018-02-15T12:28:35.738Z,3.22
2018-02-15T12:29:45.716Z,3.18
2018-02-15T12:30:55.691Z,3.37
2018-02-15T12:32:05.651Z,3.34
2018-02-15T12:33:15.104Z,3.33
2018-02-15T12:34:25.070Z,3.48
2018-02-15T12:35:35.069Z,3.53
2018-02-15T12:36:45.070Z,3.7
2018-02-15T12:37:55.033Z,3.55
2018-02-15T12:39:04.490Z,3.22
2018-02-15T12:40:14.468Z,3.41
2018-02-15T12:41:24.438Z,3.49
2018-02-15T12:42:33.888Z,3.58
2018-02-15T12:43:43.860Z,3.48
2018-02-15T12:44:53.594Z,3.18
2018-02-15T12:46:03.551Z,3.12
2018-02-15T12:47:13.569Z,3.08
2018-02-15T12:48:23.274Z,3.01
2018-02-15T12:49:32.972Z,2.97
2018-02-15T12:50:42.938Z,2.91
2018-02-15T12:51:52.924Z,2.93
2018-02-15T12:53:02.201Z,2.87
2018-02-15T12:54:11.929Z,2.93
2018-02-15T12:55:21.647Z,2.98
2018-02-15T12:56:31.615Z,2.87
2018-02-15T12:57:41.324Z,2.76
2018-02-15T12:58:51.294Z,2.73
2018-02-15T13:00:01.340Z,2.79
2018-02-15T13:01:11.038Z,2.68
2018-02-15T13:02:21.010Z,2.75
2018-02-15T13:03:30.981Z,2.91
2018-02-15T13:04:40.967Z,2.97
2018-02-15T13:05:50.942Z,2.95
2018-02-15T13:07:00.898Z,2.95
2018-02-15T13:08:10.865Z,3.06
2018-02-15T13:09:20.624Z,3.03
2018-02-15T13:10:30.593Z,3
2018-02-15T13:11:40.555Z,3.05
2018-02-15T13:12:50.533Z,3.05
2018-02-15T13:14:00.490Z,2.95
2018-02-15T13:15:09.661Z,2.97
2018-02-15T13:16:19.637Z,2.95
2018-02-15T13:17:29.621Z,2.93
2018-02-15T13:18:39.092Z,2.97
2018-02-15T13:19:49.067Z,2.8
2018-02-15T13:20:59.050Z,2.77
2018-02-15T13:22:09.064Z,2.73
2018-02-15T13:23:18.798Z,2.7
2018-02-15T13:24:28.854Z,2.75
2018-02-15T13:25:38.808Z,2.69
2018-02-15T13:26:48.771Z,2.69
2018-02-15T13:27:58.475Z,2.77
2018-02-15T13:29:08.454Z,2.8
2018-02-15T13:30:18.181Z,2.85
2018-02-15T13:31:28.160Z,2.93
2018-02-15T13:32:37.865Z,2.91
2018-02-15T13:33:47.839Z,3.06
2018-02-15T13:34:57.535Z,3.05
2018-02-15T13:36:07.525Z,3.06
2018-02-15T13:37:17.522Z,3.12
2018-02-15T13:38:27.008Z,3.12
2018-02-15T13:39:37.074Z,3.05
2018-02-15T13:40:46.780Z,3.03
2018-02-15T13:41:56.763Z,3.05
2018-02-15T13:43:06.481Z,3.05
2018-02-15T13:44:16.447Z,2.94
2018-02-15T13:45:26.415Z,3.11
2018-02-15T13:46:36.143Z,3.06
2018-02-15T13:47:46.108Z,3.06
2018-02-15T13:48:56.073Z,3.06
2018-02-15T13:50:06.040Z,2.94
2018-02-15T13:51:16.005Z,2.95
2018-02-15T13:52:25.712Z,2.98
2018-02-15T13:53:35.691Z,2.94
2018-02-15T13:54:45.666Z,2.94
2018-02-15T13:55:55.632Z,2.97
2018-02-15T13:57:05.602Z,3.06
2018-02-15T13:58:15.592Z,3.03
2018-02-15T13:59:25.574Z,3.08
2018-02-15T14:00:35.539Z,3.09
2018-02-15T14:01:45.508Z,3.08
2018-02-15T14:02:55.472Z,3.15
2018-02-15T14:04:05.463Z,3.11
2018-02-15T14:05:15.164Z,3.09
2018-02-15T14:06:25.115Z,3.19
2018-02-15T14:07:35.076Z,3.16
2018-02-15T14:08:45.042Z,3.18
2018-02-15T14:09:55.005Z,3.18
2018-02-15T14:11:04.710Z,3.22
2018-02-15T14:12:14.681Z,3.21
2018-02-15T14:13:24.385Z,3.16
2018-02-15T14:14:34.351Z,3.16
2018-02-15T14:15:44.320Z,3.15
2018-02-15T14:16:54.268Z,3.15
2018-02-15T14:18:03.979Z,3.21
2018-02-15T14:19:13.995Z,3.18
2018-02-15T14:20:23.425Z,3.11
2018-02-15T14:21:33.380Z,3.12
2018-02-15T14:22:43.337Z,3.18
2018-02-15T14:23:53.054Z,3.15
2018-02-15T14:25:02.770Z,3.15
2018-02-15T14:26:12.725Z,3.08
2018-02-15T14:27:22.721Z,3.11
2018-02-15T14:28:32.691Z,3.16
2018-02-15T14:29:42.395Z,3.19
2018-02-15T14:30:52.097Z,3.06
2018-02-15T14:32:02.042Z,3.06
2018-02-15T14:33:11.487Z,3.05
2018-02-15T14:34:21.210Z,3.15
2018-02-15T14:35:30.904Z,3.19
2018-02-15T14:36:40.306Z,3.15
2018-02-15T14:37:50.072Z,3.29
2018-02-15T14:38:59.771Z,3.19
2018-02-15T14:40:09.741Z,3.22
2018-02-15T14:41:19.718Z,3.13
2018-02-15T14:42:29.682Z,3.21
2018-02-15T14:43:39.374Z,3.18
2018-02-15T14:44:49.357Z,3.27
2018-02-15T14:45:59.304Z,3.22
2018-02-15T14:47:09.480Z,3.26
2018-02-15T14:48:18.930Z,3.29
2018-02-15T14:49:28.890Z,3.15
2018-02-15T14:50:38.851Z,3.22
2018-02-15T14:51:48.832Z,3.21
2018-02-15T14:52:58.818Z,3.29
2018-02-15T14:54:08.803Z,3.22
2018-02-15T14:55:18.762Z,3.26
2018-02-15T14:56:28.725Z,3.33
2018-02-15T14:57:38.428Z,3.3
2018-02-15T14:58:48.408Z,3.19
2018-02-15T14:59:58.376Z,3.27
2018-02-15T15:01:08.078Z,3.24
2018-02-15T15:02:18.042Z,3.3
2018-02-15T15:03:28.000Z,3.21
2018-02-15T15:04:37.697Z,3.11
2018-02-15T15:05:47.656Z,3.24
2018-02-15T15:06:57.393Z,3.19
2018-02-15T15:08:07.354Z,3.19
2018-02-15T15:09:17.072Z,3.21
2018-02-15T15:10:26.770Z,3.18
2018-02-15T15:11:36.738Z,3.12
2018-02-15T15:12:46.703Z,3.31
2018-02-15T15:13:56.666Z,3.31
2018-02-15T15:15:06.374Z,3.19